sensor_id;sensor_type;location;lat;lon;timestamp;P1;durP1;ratioP1;P2;durP2;ratioP2
80494;SDS011;69819;48.798;11.770;2024-03-02T00:00:06;20.63;;;12.57;;
80494;SDS011;69819;48.798;11.770;2024-03-02T00:05:07;18.63;;;12.52;;
80494;SDS011;69819;48.798;11.770;2024-03-02T00:07:36;18.52;;;12.05;;
80494;SDS011;69819;48.798;11.770;2024-03-02T00:10:04;19.10;;;12.00;;
80494;SDS011;69819;48.798;11.770;2024-03-02T00:12:36;21.35;;;13.15;;
80494;SDS011;69819;48.798;11.770;2024-03-02T00:15:06;18.88;;;11.38;;
80494;SDS011;69819;48.798;11.770;2024-03-02T00:18:12;17.93;;;11.50;;
80494;SDS011;69819;48.798;11.770;2024-03-02T00:20:41;17.15;;;10.93;;
80494;SDS011;69819;48.798;11.770;2024-03-02T00:23:08;17.50;;;11.35;;
80494;SDS011;69819;48.798;11.770;2024-03-02T00:25:43;16.38;;;11.13;;
80494;SDS011;69819;48.798;11.770;2024-03-02T00:33:21;16.17;;;10.63;;
80494;SDS011;69819;48.798;11.770;2024-03-02T00:35:48;17.83;;;11.52;;
80494;SDS011;69819;48.798;11.770;2024-03-02T00:38:14;17.30;;;11.88;;
80494;SDS011;69819;48.798;11.770;2024-03-02T00:40:44;17.58;;;11.55;;
80494;SDS011;69819;48.798;11.770;2024-03-02T00:43:30;17.42;;;11.27;;
80494;SDS011;69819;48.798;11.770;2024-03-02T00:46:05;16.65;;;10.85;;
80494;SDS011;69819;48.798;11.770;2024-03-02T00:48:32;17.92;;;11.15;;
80494;SDS011;69819;48.798;11.770;2024-03-02T00:51:02;17.58;;;11.55;;
80494;SDS011;69819;48.798;11.770;2024-03-02T00:53:32;18.67;;;11.10;;
80494;SDS011;69819;48.798;11.770;2024-03-02T00:55:58;20.38;;;11.95;;
80494;SDS011;69819;48.798;11.770;2024-03-02T00:58:26;16.73;;;11.35;;
80494;SDS011;69819;48.798;11.770;2024-03-02T01:00:52;16.85;;;11.60;;
80494;SDS011;69819;48.798;11.770;2024-03-02T01:03:18;19.05;;;11.30;;
80494;SDS011;69819;48.798;11.770;2024-03-02T01:05:44;16.58;;;10.93;;
80494;SDS011;69819;48.798;11.770;2024-03-02T01:08:10;18.35;;;11.73;;
80494;SDS011;69819;48.798;11.770;2024-03-02T01:10:36;19.40;;;12.15;;
80494;SDS011;69819;48.798;11.770;2024-03-02T01:13:02;16.55;;;11.25;;
80494;SDS011;69819;48.798;11.770;2024-03-02T01:15:28;16.27;;;10.85;;
80494;SDS011;69819;48.798;11.770;2024-03-02T01:17:54;16.75;;;11.48;;
80494;SDS011;69819;48.798;11.770;2024-03-02T01:20:19;17.55;;;11.18;;
80494;SDS011;69819;48.798;11.770;2024-03-02T01:22:46;16.73;;;10.40;;
80494;SDS011;69819;48.798;11.770;2024-03-02T01:25:12;16.05;;;10.85;;
80494;SDS011;69819;48.798;11.770;2024-03-02T01:27:38;19.90;;;12.20;;
80494;SDS011;69819;48.798;11.770;2024-03-02T01:30:04;19.15;;;11.27;;
80494;SDS011;69819;48.798;11.770;2024-03-02T01:32:31;17.92;;;11.20;;
80494;SDS011;69819;48.798;11.770;2024-03-02T01:34:57;17.85;;;11.00;;
80494;SDS011;69819;48.798;11.770;2024-03-02T01:37:23;17.05;;;11.20;;
80494;SDS011;69819;48.798;11.770;2024-03-02T01:39:49;16.25;;;9.68;;
80494;SDS011;69819;48.798;11.770;2024-03-02T01:42:15;17.50;;;11.45;;
80494;SDS011;69819;48.798;11.770;2024-03-02T01:44:40;16.95;;;11.00;;
80494;SDS011;69819;48.798;11.770;2024-03-02T01:47:06;18.67;;;11.20;;
80494;SDS011;69819;48.798;11.770;2024-03-02T01:49:32;18.05;;;11.43;;
80494;SDS011;69819;48.798;11.770;2024-03-02T01:51:59;15.80;;;10.30;;
80494;SDS011;69819;48.798;11.770;2024-03-02T01:54:25;20.65;;;11.77;;
80494;SDS011;69819;48.798;11.770;2024-03-02T01:56:50;18.50;;;11.40;;
80494;SDS011;69819;48.798;11.770;2024-03-02T01:59:16;17.85;;;11.75;;
80494;SDS011;69819;48.798;11.770;2024-03-02T02:01:43;17.10;;;10.70;;
80494;SDS011;69819;48.798;11.770;2024-03-02T02:04:08;18.65;;;11.65;;
80494;SDS011;69819;48.798;11.770;2024-03-02T02:06:34;16.73;;;11.18;;
80494;SDS011;69819;48.798;11.770;2024-03-02T02:09:00;17.00;;;12.02;;
80494;SDS011;69819;48.798;11.770;2024-03-02T02:11:26;17.90;;;11.57;;
80494;SDS011;69819;48.798;11.770;2024-03-02T02:13:52;21.10;;;12.27;;
80494;SDS011;69819;48.798;11.770;2024-03-02T02:16:20;18.38;;;11.80;;
80494;SDS011;69819;48.798;11.770;2024-03-02T02:18:46;18.00;;;11.50;;
80494;SDS011;69819;48.798;11.770;2024-03-02T02:21:12;17.70;;;10.93;;
80494;SDS011;69819;48.798;11.770;2024-03-02T02:23:38;17.13;;;10.98;;
80494;SDS011;69819;48.798;11.770;2024-03-02T02:26:03;17.52;;;10.95;;
80494;SDS011;69819;48.798;11.770;2024-03-02T02:28:29;16.92;;;10.80;;
80494;SDS011;69819;48.798;11.770;2024-03-02T02:30:55;16.98;;;10.48;;
80494;SDS011;69819;48.798;11.770;2024-03-02T02:33:21;15.38;;;10.32;;
80494;SDS011;69819;48.798;11.770;2024-03-02T02:35:47;17.52;;;11.07;;
80494;SDS011;69819;48.798;11.770;2024-03-02T02:38:13;13.68;;;9.60;;
80494;SDS011;69819;48.798;11.770;2024-03-02T02:40:39;16.65;;;10.15;;
80494;SDS011;69819;48.798;11.770;2024-03-02T02:43:04;14.82;;;9.68;;
80494;SDS011;69819;48.798;11.770;2024-03-02T02:45:31;15.48;;;10.02;;
80494;SDS011;69819;48.798;11.770;2024-03-02T02:47:57;13.27;;;9.98;;
80494;SDS011;69819;48.798;11.770;2024-03-02T02:50:23;13.32;;;9.35;;
80494;SDS011;69819;48.798;11.770;2024-03-02T02:52:49;12.35;;;8.85;;
80494;SDS011;69819;48.798;11.770;2024-03-02T02:55:15;14.32;;;9.50;;
80494;SDS011;69819;48.798;11.770;2024-03-02T02:57:44;12.95;;;9.30;;
80494;SDS011;69819;48.798;11.770;2024-03-02T03:00:11;13.77;;;8.85;;
80494;SDS011;69819;48.798;11.770;2024-03-02T03:02:40;16.05;;;9.93;;
80494;SDS011;69819;48.798;11.770;2024-03-02T03:05:08;13.77;;;9.25;;
80494;SDS011;69819;48.798;11.770;2024-03-02T03:07:35;14.75;;;9.75;;
80494;SDS011;69819;48.798;11.770;2024-03-02T03:10:02;13.82;;;9.32;;
80494;SDS011;69819;48.798;11.770;2024-03-02T03:12:32;14.30;;;9.10;;
80494;SDS011;69819;48.798;11.770;2024-03-02T03:15:02;13.35;;;9.30;;
80494;SDS011;69819;48.798;11.770;2024-03-02T03:17:32;14.15;;;9.23;;
80494;SDS011;69819;48.798;11.770;2024-03-02T03:19:57;15.95;;;9.75;;
80494;SDS011;69819;48.798;11.770;2024-03-02T03:22:23;16.50;;;10.15;;
80494;SDS011;69819;48.798;11.770;2024-03-02T03:24:49;14.90;;;9.70;;
80494;SDS011;69819;48.798;11.770;2024-03-02T03:27:15;17.27;;;10.05;;
80494;SDS011;69819;48.798;11.770;2024-03-02T03:29:41;15.30;;;9.85;;
80494;SDS011;69819;48.798;11.770;2024-03-02T03:32:06;14.93;;;9.23;;
80494;SDS011;69819;48.798;11.770;2024-03-02T03:34:33;15.75;;;9.82;;
80494;SDS011;69819;48.798;11.770;2024-03-02T03:36:59;16.38;;;10.20;;
80494;SDS011;69819;48.798;11.770;2024-03-02T03:39:25;17.20;;;10.70;;
80494;SDS011;69819;48.798;11.770;2024-03-02T03:41:51;16.15;;;9.80;;
80494;SDS011;69819;48.798;11.770;2024-03-02T03:44:16;14.57;;;9.95;;
80494;SDS011;69819;48.798;11.770;2024-03-02T03:46:42;15.55;;;10.05;;
80494;SDS011;69819;48.798;11.770;2024-03-02T03:49:08;15.15;;;10.38;;
80494;SDS011;69819;48.798;11.770;2024-03-02T03:51:34;14.55;;;10.13;;
80494;SDS011;69819;48.798;11.770;2024-03-02T03:54:00;16.08;;;9.90;;
80494;SDS011;69819;48.798;11.770;2024-03-02T03:56:26;15.93;;;9.93;;
80494;SDS011;69819;48.798;11.770;2024-03-02T03:58:52;15.93;;;10.35;;
80494;SDS011;69819;48.798;11.770;2024-03-02T04:01:18;15.30;;;9.93;;
80494;SDS011;69819;48.798;11.770;2024-03-02T04:03:43;13.50;;;9.60;;
80494;SDS011;69819;48.798;11.770;2024-03-02T04:06:10;16.20;;;9.88;;
80494;SDS011;69819;48.798;11.770;2024-03-02T04:08:35;16.20;;;9.57;;
80494;SDS011;69819;48.798;11.770;2024-03-02T04:11:01;15.73;;;10.23;;
80494;SDS011;69819;48.798;11.770;2024-03-02T04:13:28;17.00;;;10.88;;
80494;SDS011;69819;48.798;11.770;2024-03-02T04:15:53;16.35;;;10.25;;
80494;SDS011;69819;48.798;11.770;2024-03-02T04:18:19;16.02;;;9.73;;
80494;SDS011;69819;48.798;11.770;2024-03-02T04:20:45;15.68;;;10.23;;
80494;SDS011;69819;48.798;11.770;2024-03-02T04:23:10;16.88;;;10.18;;
80494;SDS011;69819;48.798;11.770;2024-03-02T04:25:36;16.00;;;10.25;;
80494;SDS011;69819;48.798;11.770;2024-03-02T04:28:02;17.50;;;11.20;;
80494;SDS011;69819;48.798;11.770;2024-03-02T04:30:28;15.85;;;10.60;;
80494;SDS011;69819;48.798;11.770;2024-03-02T04:32:54;15.68;;;10.23;;
80494;SDS011;69819;48.798;11.770;2024-03-02T04:35:20;15.57;;;10.35;;
80494;SDS011;69819;48.798;11.770;2024-03-02T04:37:46;17.42;;;11.18;;
80494;SDS011;69819;48.798;11.770;2024-03-02T04:40:12;16.40;;;11.20;;
80494;SDS011;69819;48.798;11.770;2024-03-02T04:42:37;18.67;;;11.15;;
80494;SDS011;69819;48.798;11.770;2024-03-02T04:45:03;17.00;;;10.90;;
80494;SDS011;69819;48.798;11.770;2024-03-02T04:47:29;18.40;;;11.82;;
80494;SDS011;69819;48.798;11.770;2024-03-02T04:49:55;17.73;;;11.32;;
80494;SDS011;69819;48.798;11.770;2024-03-02T04:52:21;18.17;;;11.32;;
80494;SDS011;69819;48.798;11.770;2024-03-02T04:54:47;15.60;;;10.45;;
80494;SDS011;69819;48.798;11.770;2024-03-02T04:57:31;16.02;;;10.15;;
80494;SDS011;69819;48.798;11.770;2024-03-02T04:59:56;16.92;;;10.93;;
80494;SDS011;69819;48.798;11.770;2024-03-02T05:02:22;18.42;;;12.00;;
80494;SDS011;69819;48.798;11.770;2024-03-02T05:04:48;17.33;;;11.48;;
80494;SDS011;69819;48.798;11.770;2024-03-02T05:07:14;17.42;;;11.55;;
80494;SDS011;69819;48.798;11.770;2024-03-02T05:09:40;21.63;;;11.60;;
80494;SDS011;69819;48.798;11.770;2024-03-02T05:12:06;16.92;;;11.75;;
80494;SDS011;69819;48.798;11.770;2024-03-02T05:14:55;17.48;;;10.77;;
80494;SDS011;69819;48.798;11.770;2024-03-02T05:17:21;17.00;;;11.13;;
80494;SDS011;69819;48.798;11.770;2024-03-02T05:19:47;19.17;;;11.80;;
80494;SDS011;69819;48.798;11.770;2024-03-02T05:22:13;16.15;;;10.93;;
80494;SDS011;69819;48.798;11.770;2024-03-02T05:24:38;19.73;;;11.90;;
80494;SDS011;69819;48.798;11.770;2024-03-02T05:27:04;18.48;;;11.63;;
80494;SDS011;69819;48.798;11.770;2024-03-02T05:29:31;18.20;;;11.90;;
80494;SDS011;69819;48.798;11.770;2024-03-02T05:31:57;17.50;;;11.40;;
80494;SDS011;69819;48.798;11.770;2024-03-02T05:34:22;18.13;;;10.82;;
80494;SDS011;69819;48.798;11.770;2024-03-02T05:36:48;19.05;;;12.73;;
80494;SDS011;69819;48.798;11.770;2024-03-02T05:39:14;15.18;;;10.45;;
80494;SDS011;69819;48.798;11.770;2024-03-02T05:41:40;17.25;;;11.20;;
80494;SDS011;69819;48.798;11.770;2024-03-02T05:44:06;17.15;;;11.15;;
80494;SDS011;69819;48.798;11.770;2024-03-02T05:46:32;18.38;;;11.45;;
80494;SDS011;69819;48.798;11.770;2024-03-02T05:48:59;16.85;;;11.00;;
80494;SDS011;69819;48.798;11.770;2024-03-02T05:51:25;15.82;;;10.70;;
80494;SDS011;69819;48.798;11.770;2024-03-02T05:53:51;17.00;;;11.10;;
80494;SDS011;69819;48.798;11.770;2024-03-02T05:56:17;16.95;;;10.52;;
80494;SDS011;69819;48.798;11.770;2024-03-02T05:58:43;16.25;;;10.65;;
80494;SDS011;69819;48.798;11.770;2024-03-02T06:01:22;17.52;;;11.23;;
80494;SDS011;69819;48.798;11.770;2024-03-02T06:03:53;17.13;;;10.70;;
80494;SDS011;69819;48.798;11.770;2024-03-02T06:06:21;17.15;;;10.93;;
80494;SDS011;69819;48.798;11.770;2024-03-02T06:08:48;16.92;;;10.77;;
80494;SDS011;69819;48.798;11.770;2024-03-02T06:11:13;16.90;;;10.48;;
80494;SDS011;69819;48.798;11.770;2024-03-02T06:13:39;15.02;;;9.95;;
80494;SDS011;69819;48.798;11.770;2024-03-02T06:16:05;13.88;;;9.27;;
80494;SDS011;69819;48.798;11.770;2024-03-02T06:18:31;20.20;;;11.88;;
80494;SDS011;69819;48.798;11.770;2024-03-02T06:20:57;20.10;;;11.45;;
80494;SDS011;69819;48.798;11.770;2024-03-02T06:23:23;20.05;;;11.40;;
80494;SDS011;69819;48.798;11.770;2024-03-02T06:25:48;20.35;;;12.13;;
80494;SDS011;69819;48.798;11.770;2024-03-02T06:28:14;19.45;;;11.65;;
80494;SDS011;69819;48.798;11.770;2024-03-02T06:30:40;19.67;;;12.73;;
80494;SDS011;69819;48.798;11.770;2024-03-02T06:33:08;19.95;;;12.15;;
80494;SDS011;69819;48.798;11.770;2024-03-02T06:35:34;19.15;;;11.48;;
80494;SDS011;69819;48.798;11.770;2024-03-02T06:38:00;20.10;;;12.52;;
80494;SDS011;69819;48.798;11.770;2024-03-02T06:40:26;19.95;;;12.02;;
80494;SDS011;69819;48.798;11.770;2024-03-02T06:42:52;20.63;;;12.00;;
80494;SDS011;69819;48.798;11.770;2024-03-02T06:45:18;20.55;;;12.35;;
80494;SDS011;69819;48.798;11.770;2024-03-02T06:47:44;20.73;;;12.18;;
80494;SDS011;69819;48.798;11.770;2024-03-02T06:50:10;20.42;;;12.63;;
80494;SDS011;69819;48.798;11.770;2024-03-02T06:52:36;23.42;;;12.30;;
80494;SDS011;69819;48.798;11.770;2024-03-02T06:55:02;20.60;;;12.18;;
80494;SDS011;69819;48.798;11.770;2024-03-02T06:57:29;21.75;;;12.40;;
80494;SDS011;69819;48.798;11.770;2024-03-02T06:59:55;19.52;;;12.00;;
80494;SDS011;69819;48.798;11.770;2024-03-02T07:02:23;30.58;;;12.70;;
80494;SDS011;69819;48.798;11.770;2024-03-02T07:04:53;26.10;;;11.68;;
80494;SDS011;69819;48.798;11.770;2024-03-02T07:07:19;23.20;;;12.57;;
80494;SDS011;69819;48.798;11.770;2024-03-02T07:09:45;23.92;;;11.73;;
80494;SDS011;69819;48.798;11.770;2024-03-02T07:12:12;24.90;;;11.18;;
80494;SDS011;69819;48.798;11.770;2024-03-02T07:14:38;28.35;;;11.77;;
80494;SDS011;69819;48.798;11.770;2024-03-02T07:17:36;23.63;;;11.43;;
80494;SDS011;69819;48.798;11.770;2024-03-02T07:20:02;23.73;;;11.63;;
80494;SDS011;69819;48.798;11.770;2024-03-02T07:22:29;20.85;;;10.98;;
80494;SDS011;69819;48.798;11.770;2024-03-02T07:24:54;24.25;;;11.50;;
80494;SDS011;69819;48.798;11.770;2024-03-02T07:27:20;18.60;;;10.52;;
80494;SDS011;69819;48.798;11.770;2024-03-02T07:29:46;15.32;;;10.15;;
80494;SDS011;69819;48.798;11.770;2024-03-02T07:32:12;19.48;;;11.57;;
80494;SDS011;69819;48.798;11.770;2024-03-02T07:34:38;18.02;;;11.30;;
80494;SDS011;69819;48.798;11.770;2024-03-02T07:37:04;17.85;;;11.27;;
80494;SDS011;69819;48.798;11.770;2024-03-02T07:39:30;18.90;;;11.43;;
80494;SDS011;69819;48.798;11.770;2024-03-02T07:41:56;19.20;;;12.25;;
80494;SDS011;69819;48.798;11.770;2024-03-02T07:44:22;15.75;;;10.82;;
80494;SDS011;69819;48.798;11.770;2024-03-02T07:46:48;19.08;;;11.30;;
80494;SDS011;69819;48.798;11.770;2024-03-02T07:49:18;17.95;;;12.02;;
80494;SDS011;69819;48.798;11.770;2024-03-02T07:51:44;17.15;;;11.23;;
80494;SDS011;69819;48.798;11.770;2024-03-02T07:54:10;16.65;;;11.18;;
80494;SDS011;69819;48.798;11.770;2024-03-02T07:56:36;16.77;;;11.52;;
80494;SDS011;69819;48.798;11.770;2024-03-02T07:59:02;18.73;;;12.30;;
80494;SDS011;69819;48.798;11.770;2024-03-02T08:01:29;15.63;;;9.80;;
80494;SDS011;69819;48.798;11.770;2024-03-02T08:03:56;16.90;;;10.85;;
80494;SDS011;69819;48.798;11.770;2024-03-02T08:06:27;14.68;;;10.23;;
80494;SDS011;69819;48.798;11.770;2024-03-02T08:08:53;18.00;;;11.35;;
80494;SDS011;69819;48.798;11.770;2024-03-02T08:11:21;16.75;;;11.48;;
80494;SDS011;69819;48.798;11.770;2024-03-02T08:13:47;17.98;;;10.98;;
80494;SDS011;69819;48.798;11.770;2024-03-02T08:16:16;19.08;;;12.38;;
80494;SDS011;69819;48.798;11.770;2024-03-02T08:18:47;17.88;;;11.82;;
80494;SDS011;69819;48.798;11.770;2024-03-02T08:21:14;17.67;;;12.18;;
80494;SDS011;69819;48.798;11.770;2024-03-02T08:23:40;16.52;;;11.25;;
80494;SDS011;69819;48.798;11.770;2024-03-02T08:26:08;17.92;;;11.20;;
80494;SDS011;69819;48.798;11.770;2024-03-02T08:28:35;16.50;;;11.32;;
80494;SDS011;69819;48.798;11.770;2024-03-02T08:31:02;16.42;;;10.90;;
80494;SDS011;69819;48.798;11.770;2024-03-02T08:33:28;17.73;;;10.95;;
80494;SDS011;69819;48.798;11.770;2024-03-02T08:35:55;18.85;;;12.15;;
80494;SDS011;69819;48.798;11.770;2024-03-02T08:38:21;18.95;;;11.77;;
80494;SDS011;69819;48.798;11.770;2024-03-02T08:40:47;17.98;;;11.25;;
80494;SDS011;69819;48.798;11.770;2024-03-02T08:43:15;18.05;;;11.82;;
80494;SDS011;69819;48.798;11.770;2024-03-02T08:45:41;19.38;;;11.93;;
80494;SDS011;69819;48.798;11.770;2024-03-02T08:48:07;16.35;;;11.05;;
80494;SDS011;69819;48.798;11.770;2024-03-02T08:50:33;21.20;;;12.85;;
80494;SDS011;69819;48.798;11.770;2024-03-02T08:53:00;17.05;;;11.18;;
80494;SDS011;69819;48.798;11.770;2024-03-02T08:55:26;18.63;;;12.32;;
80494;SDS011;69819;48.798;11.770;2024-03-02T08:57:52;19.13;;;12.32;;
80494;SDS011;69819;48.798;11.770;2024-03-02T09:00:18;21.02;;;12.60;;
80494;SDS011;69819;48.798;11.770;2024-03-02T09:02:44;18.52;;;11.65;;
80494;SDS011;69819;48.798;11.770;2024-03-02T09:05:10;18.48;;;12.10;;
80494;SDS011;69819;48.798;11.770;2024-03-02T09:07:36;20.92;;;12.70;;
80494;SDS011;69819;48.798;11.770;2024-03-02T09:10:03;18.98;;;13.00;;
80494;SDS011;69819;48.798;11.770;2024-03-02T09:12:31;21.05;;;13.23;;
80494;SDS011;69819;48.798;11.770;2024-03-02T09:14:58;20.08;;;13.77;;
80494;SDS011;69819;48.798;11.770;2024-03-02T09:17:25;22.05;;;13.90;;
80494;SDS011;69819;48.798;11.770;2024-03-02T09:19:50;23.25;;;14.43;;
80494;SDS011;69819;48.798;11.770;2024-03-02T09:22:18;25.60;;;15.32;;
80494;SDS011;69819;48.798;11.770;2024-03-02T09:24:44;25.58;;;16.00;;
80494;SDS011;69819;48.798;11.770;2024-03-02T09:27:10;26.50;;;16.45;;
80494;SDS011;69819;48.798;11.770;2024-03-02T09:29:36;25.95;;;16.15;;
80494;SDS011;69819;48.798;11.770;2024-03-02T09:32:02;26.77;;;16.15;;
80494;SDS011;69819;48.798;11.770;2024-03-02T09:34:29;26.15;;;15.68;;
80494;SDS011;69819;48.798;11.770;2024-03-02T09:36:54;27.48;;;16.80;;
80494;SDS011;69819;48.798;11.770;2024-03-02T09:39:20;27.90;;;16.73;;
80494;SDS011;69819;48.798;11.770;2024-03-02T09:41:47;26.10;;;16.23;;
80494;SDS011;69819;48.798;11.770;2024-03-02T09:44:13;23.88;;;15.27;;
80494;SDS011;69819;48.798;11.770;2024-03-02T09:46:40;26.90;;;16.48;;
80494;SDS011;69819;48.798;11.770;2024-03-02T09:49:08;26.70;;;16.55;;
80494;SDS011;69819;48.798;11.770;2024-03-02T09:51:37;24.20;;;15.45;;
80494;SDS011;69819;48.798;11.770;2024-03-02T09:54:04;23.02;;;14.45;;
80494;SDS011;69819;48.798;11.770;2024-03-02T09:56:33;23.20;;;15.02;;
80494;SDS011;69819;48.798;11.770;2024-03-02T09:58:59;25.95;;;15.88;;
80494;SDS011;69819;48.798;11.770;2024-03-02T10:01:25;23.40;;;16.38;;
80494;SDS011;69819;48.798;11.770;2024-03-02T10:03:50;24.52;;;15.75;;
80494;SDS011;69819;48.798;11.770;2024-03-02T10:06:21;25.25;;;17.08;;
80494;SDS011;69819;48.798;11.770;2024-03-02T10:08:49;24.23;;;15.50;;
80494;SDS011;69819;48.798;11.770;2024-03-02T10:11:28;25.77;;;16.98;;
80494;SDS011;69819;48.798;11.770;2024-03-02T10:16:39;23.42;;;15.23;;
80494;SDS011;69819;48.798;11.770;2024-03-02T10:21:52;24.67;;;16.27;;
80494;SDS011;69819;48.798;11.770;2024-03-02T10:24:21;25.42;;;16.08;;
80494;SDS011;69819;48.798;11.770;2024-03-02T10:26:47;26.08;;;16.58;;
80494;SDS011;69819;48.798;11.770;2024-03-02T10:29:14;22.08;;;15.18;;
80494;SDS011;69819;48.798;11.770;2024-03-02T10:31:44;23.02;;;14.82;;
80494;SDS011;69819;48.798;11.770;2024-03-02T10:34:11;29.38;;;19.23;;
80494;SDS011;69819;48.798;11.770;2024-03-02T10:36:42;27.75;;;16.90;;
80494;SDS011;69819;48.798;11.770;2024-03-02T10:39:10;22.70;;;14.93;;
80494;SDS011;69819;48.798;11.770;2024-03-02T10:41:39;22.17;;;14.35;;
80494;SDS011;69819;48.798;11.770;2024-03-02T10:44:07;21.60;;;14.65;;
80494;SDS011;69819;48.798;11.770;2024-03-02T10:46:37;18.10;;;12.15;;
80494;SDS011;69819;48.798;11.770;2024-03-02T10:49:04;19.30;;;13.10;;
80494;SDS011;69819;48.798;11.770;2024-03-02T10:51:32;20.85;;;14.15;;
80494;SDS011;69819;48.798;11.770;2024-03-02T10:54:01;19.77;;;14.23;;
80494;SDS011;69819;48.798;11.770;2024-03-02T10:56:38;19.38;;;13.23;;
80494;SDS011;69819;48.798;11.770;2024-03-02T11:02:04;19.23;;;12.90;;
80494;SDS011;69819;48.798;11.770;2024-03-02T11:04:33;17.95;;;12.20;;
80494;SDS011;69819;48.798;11.770;2024-03-02T11:09:30;17.90;;;12.23;;
80494;SDS011;69819;48.798;11.770;2024-03-02T11:12:09;20.02;;;13.23;;
80494;SDS011;69819;48.798;11.770;2024-03-02T11:14:41;15.88;;;11.43;;
80494;SDS011;69819;48.798;11.770;2024-03-02T11:17:11;18.88;;;12.93;;
80494;SDS011;69819;48.798;11.770;2024-03-02T11:19:43;21.25;;;13.05;;
80494;SDS011;69819;48.798;11.770;2024-03-02T11:22:10;17.65;;;12.77;;
80494;SDS011;69819;48.798;11.770;2024-03-02T11:24:38;19.50;;;13.40;;
80494;SDS011;69819;48.798;11.770;2024-03-02T11:27:04;17.45;;;12.27;;
80494;SDS011;69819;48.798;11.770;2024-03-02T11:32:15;18.50;;;12.57;;
80494;SDS011;69819;48.798;11.770;2024-03-02T11:34:46;21.02;;;13.50;;
80494;SDS011;69819;48.798;11.770;2024-03-02T11:37:15;17.95;;;12.00;;
80494;SDS011;69819;48.798;11.770;2024-03-02T11:39:50;20.30;;;13.30;;
80494;SDS011;69819;48.798;11.770;2024-03-02T11:42:17;21.45;;;13.90;;
80494;SDS011;69819;48.798;11.770;2024-03-02T11:44:46;21.17;;;14.15;;
80494;SDS011;69819;48.798;11.770;2024-03-02T11:47:16;18.80;;;13.32;;
80494;SDS011;69819;48.798;11.770;2024-03-02T11:49:44;19.33;;;12.98;;
80494;SDS011;69819;48.798;11.770;2024-03-02T11:52:13;19.98;;;12.93;;
80494;SDS011;69819;48.798;11.770;2024-03-02T11:54:42;21.25;;;13.60;;
80494;SDS011;69819;48.798;11.770;2024-03-02T11:57:13;21.13;;;13.93;;
80494;SDS011;69819;48.798;11.770;2024-03-02T11:59:48;20.33;;;13.38;;
80494;SDS011;69819;48.798;11.770;2024-03-02T12:02:18;19.67;;;12.40;;
80494;SDS011;69819;48.798;11.770;2024-03-02T12:04:46;19.55;;;12.45;;
80494;SDS011;69819;48.798;11.770;2024-03-02T12:07:21;20.48;;;13.25;;
80494;SDS011;69819;48.798;11.770;2024-03-02T12:10:09;22.08;;;13.63;;
80494;SDS011;69819;48.798;11.770;2024-03-02T12:12:34;19.90;;;13.32;;
80494;SDS011;69819;48.798;11.770;2024-03-02T12:15:00;21.45;;;13.77;;
80494;SDS011;69819;48.798;11.770;2024-03-02T12:17:26;20.20;;;12.70;;
80494;SDS011;69819;48.798;11.770;2024-03-02T12:19:52;19.50;;;11.57;;
80494;SDS011;69819;48.798;11.770;2024-03-02T12:22:18;18.13;;;12.02;;
80494;SDS011;69819;48.798;11.770;2024-03-02T12:24:44;19.58;;;12.35;;
80494;SDS011;69819;48.798;11.770;2024-03-02T12:27:11;18.48;;;12.60;;
80494;SDS011;69819;48.798;11.770;2024-03-02T12:29:39;18.90;;;12.20;;
80494;SDS011;69819;48.798;11.770;2024-03-02T12:32:06;19.90;;;12.10;;
80494;SDS011;69819;48.798;11.770;2024-03-02T12:34:32;19.45;;;12.25;;
80494;SDS011;69819;48.798;11.770;2024-03-02T12:36:58;19.52;;;12.45;;
80494;SDS011;69819;48.798;11.770;2024-03-02T12:39:23;18.20;;;11.70;;
80494;SDS011;69819;48.798;11.770;2024-03-02T12:41:50;20.50;;;12.75;;
80494;SDS011;69819;48.798;11.770;2024-03-02T12:44:16;18.77;;;11.77;;
80494;SDS011;69819;48.798;11.770;2024-03-02T12:46:43;17.63;;;11.57;;
80494;SDS011;69819;48.798;11.770;2024-03-02T12:49:10;18.38;;;11.52;;
80494;SDS011;69819;48.798;11.770;2024-03-02T12:51:39;18.20;;;11.65;;
80494;SDS011;69819;48.798;11.770;2024-03-02T12:54:07;19.23;;;11.38;;
80494;SDS011;69819;48.798;11.770;2024-03-02T12:56:35;17.88;;;11.23;;
80494;SDS011;69819;48.798;11.770;2024-03-02T12:59:10;18.90;;;11.13;;
80494;SDS011;69819;48.798;11.770;2024-03-02T13:01:52;16.95;;;11.05;;
80494;SDS011;69819;48.798;11.770;2024-03-02T13:04:22;19.88;;;12.75;;
80494;SDS011;69819;48.798;11.770;2024-03-02T13:06:54;20.52;;;12.75;;
80494;SDS011;69819;48.798;11.770;2024-03-02T13:09:22;19.95;;;12.15;;
80494;SDS011;69819;48.798;11.770;2024-03-02T13:11:49;21.50;;;13.30;;
80494;SDS011;69819;48.798;11.770;2024-03-02T13:14:15;23.05;;;12.93;;
80494;SDS011;69819;48.798;11.770;2024-03-02T13:16:41;21.23;;;12.90;;
80494;SDS011;69819;48.798;11.770;2024-03-02T13:19:08;17.42;;;11.43;;
80494;SDS011;69819;48.798;11.770;2024-03-02T13:21:37;19.52;;;11.63;;
80494;SDS011;69819;48.798;11.770;2024-03-02T13:24:03;20.10;;;12.75;;
80494;SDS011;69819;48.798;11.770;2024-03-02T13:26:30;18.77;;;11.38;;
80494;SDS011;69819;48.798;11.770;2024-03-02T13:28:56;20.80;;;12.52;;
80494;SDS011;69819;48.798;11.770;2024-03-02T13:31:22;19.10;;;12.88;;
80494;SDS011;69819;48.798;11.770;2024-03-02T13:33:48;19.27;;;13.15;;
80494;SDS011;69819;48.798;11.770;2024-03-02T13:36:14;19.75;;;12.57;;
80494;SDS011;69819;48.798;11.770;2024-03-02T13:38:39;17.58;;;10.88;;
80494;SDS011;69819;48.798;11.770;2024-03-02T13:41:05;16.58;;;11.15;;
80494;SDS011;69819;48.798;11.770;2024-03-02T13:43:31;21.95;;;12.57;;
80494;SDS011;69819;48.798;11.770;2024-03-02T13:46:00;18.90;;;11.90;;
80494;SDS011;69819;48.798;11.770;2024-03-02T13:48:29;18.77;;;11.90;;
80494;SDS011;69819;48.798;11.770;2024-03-02T13:50:55;19.55;;;12.38;;
80494;SDS011;69819;48.798;11.770;2024-03-02T13:53:22;19.02;;;11.63;;
80494;SDS011;69819;48.798;11.770;2024-03-02T13:55:48;17.15;;;11.32;;
80494;SDS011;69819;48.798;11.770;2024-03-02T13:58:14;18.23;;;11.68;;
80494;SDS011;69819;48.798;11.770;2024-03-02T14:00:40;17.42;;;11.05;;
80494;SDS011;69819;48.798;11.770;2024-03-02T14:03:06;17.77;;;11.73;;
80494;SDS011;69819;48.798;11.770;2024-03-02T14:05:32;19.25;;;11.98;;
80494;SDS011;69819;48.798;11.770;2024-03-02T14:07:59;17.30;;;11.02;;
80494;SDS011;69819;48.798;11.770;2024-03-02T14:10:25;22.65;;;13.90;;
80494;SDS011;69819;48.798;11.770;2024-03-02T14:12:52;21.15;;;12.25;;
80494;SDS011;69819;48.798;11.770;2024-03-02T14:15:20;18.30;;;11.65;;
80494;SDS011;69819;48.798;11.770;2024-03-02T14:17:46;18.55;;;11.45;;
80494;SDS011;69819;48.798;11.770;2024-03-02T14:20:12;19.60;;;11.68;;
80494;SDS011;69819;48.798;11.770;2024-03-02T14:22:39;19.52;;;12.27;;
80494;SDS011;69819;48.798;11.770;2024-03-02T14:25:05;18.02;;;11.13;;
80494;SDS011;69819;48.798;11.770;2024-03-02T14:27:31;16.13;;;10.80;;
80494;SDS011;69819;48.798;11.770;2024-03-02T14:29:57;20.58;;;11.52;;
80494;SDS011;69819;48.798;11.770;2024-03-02T14:32:23;18.83;;;11.93;;